createdAt,value
2018-03-27T00:02:26.783Z,58.80
2018-03-27T00:04:54.241Z,52.90
2018-03-27T00:07:21.712Z,54.88
2018-03-27T00:09:49.161Z,49.60
2018-03-27T00:12:16.619Z,55.20
2018-03-27T00:14:44.070Z,56.57
2018-03-27T00:17:11.622Z,55.13
2018-03-27T00:19:39.076Z,45.43
2018-03-27T00:22:06.549Z,50.60
2018-03-27T00:24:41.837Z,49.63
2018-03-27T00:27:08.836Z,52.37
2018-03-27T00:29:48.149Z,50.57
2018-03-27T00:32:27.587Z,48.53
2018-03-27T00:35:07.096Z,56.93
2018-03-27T00:37:46.519Z,59.73
2018-03-27T00:43:12.054Z,54.87
2018-03-27T00:45:39.630Z,49.93
2018-03-27T00:48:07.060Z,45.80
2018-03-27T00:50:35.306Z,53.07
2018-03-27T00:53:02.763Z,48.77
2018-03-27T00:55:30.225Z,50.67
2018-03-27T00:57:57.681Z,55.90
2018-03-27T01:00:25.328Z,57.73
2018-03-27T01:02:52.780Z,51.70
2018-03-27T01:05:20.456Z,54.17
2018-03-27T01:07:47.906Z,53.23
2018-03-27T01:10:15.379Z,47.53
2018-03-27T01:12:42.836Z,50.30
2018-03-27T01:15:10.288Z,43.10
2018-03-27T01:17:37.756Z,50.50
2018-03-27T01:20:05.227Z,50.73
2018-03-27T01:22:33.453Z,58.63
2018-03-27T01:25:00.931Z,58.05
2018-03-27T01:27:28.384Z,56.40
2018-03-27T01:29:55.855Z,49.60
2018-03-27T01:32:23.324Z,52.37
2018-03-27T01:34:50.777Z,58.17
2018-03-27T01:37:19.743Z,54.17
2018-03-27T01:39:47.211Z,52.00
2018-03-27T01:42:14.699Z,51.20
2018-03-27T01:44:42.931Z,48.80
2018-03-27T01:47:10.416Z,44.30
2018-03-27T01:49:37.865Z,48.33
2018-03-27T01:52:05.328Z,45.03
2018-03-27T01:54:32.791Z,54.20
2018-03-27T01:57:00.271Z,49.33
2018-03-27T01:59:28.488Z,46.30
2018-03-27T02:01:55.955Z,55.43
2018-03-27T02:04:23.432Z,50.27
2018-03-27T02:06:51.660Z,53.07
2018-03-27T02:09:19.128Z,50.22
2018-03-27T02:11:52.225Z,51.67
2018-03-27T02:14:25.416Z,53.30
2018-03-27T02:16:58.588Z,46.00
2018-03-27T02:19:31.648Z,52.75
2018-03-27T02:21:59.382Z,51.75
2018-03-27T02:24:27.385Z,48.80
2018-03-27T02:26:55.604Z,51.40
2018-03-27T02:29:23.066Z,52.87
2018-03-27T02:31:50.529Z,50.20
2018-03-27T02:34:18.014Z,50.17
2018-03-27T02:36:45.464Z,49.10
2018-03-27T02:39:12.925Z,50.13
2018-03-27T02:41:40.392Z,55.10
2018-03-27T02:44:08.622Z,50.40
2018-03-27T02:46:36.072Z,50.07
2018-03-27T02:49:03.543Z,55.47
2018-03-27T02:51:31.008Z,55.05
2018-03-27T02:53:58.473Z,47.27
2018-03-27T02:56:25.933Z,49.77
2018-03-27T02:58:53.407Z,46.20
2018-03-27T03:01:20.860Z,49.30
2018-03-27T03:03:48.340Z,50.30
2018-03-27T03:06:17.611Z,49.90
2018-03-27T03:08:45.063Z,47.00
2018-03-27T03:11:12.516Z,51.27
2018-03-27T03:13:39.986Z,49.73
2018-03-27T03:16:07.423Z,55.17
2018-03-27T03:18:34.904Z,52.87
2018-03-27T03:21:02.358Z,54.10
2018-03-27T03:23:29.824Z,53.07
2018-03-27T03:25:57.288Z,51.17
2018-03-27T03:28:25.507Z,55.67
2018-03-27T03:30:52.959Z,52.70
2018-03-27T03:33:20.413Z,46.80
2018-03-27T03:35:47.873Z,49.10
2018-03-27T03:38:15.349Z,48.83
2018-03-27T03:40:42.812Z,53.67
2018-03-27T03:43:10.272Z,55.87
2018-03-27T03:45:37.752Z,55.47
2018-03-27T03:48:05.979Z,51.73
2018-03-27T03:50:33.437Z,51.17
2018-03-27T03:53:00.906Z,42.73
2018-03-27T03:55:28.367Z,45.88
2018-03-27T03:57:55.819Z,45.23
2018-03-27T04:00:23.290Z,44.63
2018-03-27T04:02:50.744Z,48.37
2018-03-27T04:05:18.242Z,44.77
2018-03-27T04:07:46.484Z,45.97
2018-03-27T04:10:13.954Z,42.97
2018-03-27T04:12:42.935Z,45.30
2018-03-27T04:15:10.410Z,45.10
2018-03-27T04:17:37.963Z,44.40
2018-03-27T04:20:05.436Z,45.33
2018-03-27T04:22:32.892Z,49.27
2018-03-27T04:25:00.376Z,41.53
2018-03-27T04:27:27.825Z,46.20
2018-03-27T04:29:56.057Z,46.23
2018-03-27T04:32:23.509Z,46.37
2018-03-27T04:34:50.979Z,51.57
2018-03-27T04:37:18.445Z,51.10
2018-03-27T04:39:45.914Z,51.60
2018-03-27T04:42:14.147Z,51.27
2018-03-27T04:44:41.598Z,50.47
2018-03-27T04:47:09.057Z,50.70
2018-03-27T04:49:36.506Z,49.97
2018-03-27T04:52:04.772Z,44.30
2018-03-27T04:54:32.225Z,52.20
2018-03-27T04:56:59.700Z,54.83
2018-03-27T04:59:27.169Z,56.37
2018-03-27T05:01:54.642Z,54.77
2018-03-27T05:04:22.088Z,47.23
2018-03-27T05:06:49.553Z,51.37
2018-03-27T05:09:17.005Z,54.33
2018-03-27T05:11:44.456Z,53.07
2018-03-27T05:14:11.916Z,50.93
2018-03-27T05:16:39.405Z,48.23
2018-03-27T05:19:07.655Z,47.53
2018-03-27T05:21:35.111Z,50.83
2018-03-27T05:24:02.560Z,51.10
2018-03-27T05:26:30.029Z,53.95
2018-03-27T05:28:57.480Z,57.47
2018-03-27T05:31:24.952Z,53.30
2018-03-27T05:33:52.406Z,52.67
2018-03-27T05:36:20.030Z,51.17
2018-03-27T05:38:47.505Z,60.60
2018-03-27T05:41:14.960Z,60.00
2018-03-27T05:43:42.428Z,58.57
2018-03-27T05:46:09.899Z,49.87
2018-03-27T05:48:37.363Z,56.25
2018-03-27T05:51:04.826Z,57.60
2018-03-27T05:53:32.264Z,50.33
2018-03-27T05:55:59.854Z,56.63
2018-03-27T05:58:28.598Z,55.87
2018-03-27T06:00:56.049Z,61.03
2018-03-27T06:03:23.511Z,60.77
2018-03-27T06:05:50.971Z,68.47
2018-03-27T06:08:18.441Z,66.50
2018-03-27T06:10:45.889Z,67.83
2018-03-27T06:13:13.355Z,68.90
2018-03-27T06:15:40.809Z,57.67
2018-03-27T06:18:08.303Z,61.13
2018-03-27T06:20:36.024Z,54.28
2018-03-27T06:23:03.494Z,53.27
2018-03-27T06:25:30.940Z,49.00
2018-03-27T06:27:58.393Z,57.83
2018-03-27T06:30:25.867Z,53.50
2018-03-27T06:32:53.437Z,52.50
2018-03-27T06:35:21.473Z,56.30
2018-03-27T06:37:48.945Z,57.40
2018-03-27T06:40:16.391Z,57.57
2018-03-27T06:42:43.856Z,60.03
2018-03-27T06:45:11.309Z,69.27
2018-03-27T06:47:38.837Z,63.43
2018-03-27T06:50:06.236Z,64.97
2018-03-27T06:52:33.712Z,41.83
2018-03-27T06:55:01.167Z,84.60
2018-03-27T06:57:28.657Z,66.57
2018-03-27T06:59:56.878Z,65.70
2018-03-27T07:02:24.347Z,76.40
2018-03-27T07:04:51.928Z,68.12
2018-03-27T07:07:19.395Z,63.83
2018-03-27T07:09:47.612Z,65.13
2018-03-27T07:12:15.074Z,63.83
2018-03-27T07:14:42.533Z,70.83
2018-03-27T07:17:10.012Z,65.50
2018-03-27T07:19:56.353Z,57.33
2018-03-27T07:22:24.584Z,62.07
2018-03-27T07:24:52.063Z,56.03
2018-03-27T07:27:19.515Z,51.47
2018-03-27T07:29:47.744Z,56.83
2018-03-27T07:32:15.197Z,48.50
2018-03-27T07:34:42.651Z,49.47
2018-03-27T07:37:10.100Z,52.87
2018-03-27T07:39:37.620Z,50.47
2018-03-27T07:42:05.072Z,58.13
2018-03-27T07:44:32.558Z,52.10
2018-03-27T07:47:00.772Z,53.00
2018-03-27T07:49:28.238Z,50.80
2018-03-27T07:51:55.705Z,49.73
2018-03-27T07:54:23.160Z,53.17
2018-03-27T07:56:50.617Z,49.40
2018-03-27T07:59:18.081Z,50.47
2018-03-27T08:01:45.540Z,51.03
2018-03-27T08:04:13.005Z,55.77
2018-03-27T08:06:40.451Z,54.10
2018-03-27T08:09:08.217Z,50.60
2018-03-27T08:11:35.684Z,53.78
2018-03-27T08:14:03.156Z,51.20
2018-03-27T08:16:30.620Z,45.57
2018-03-27T08:18:58.848Z,51.00
2018-03-27T08:21:26.313Z,49.42
2018-03-27T08:23:53.786Z,47.63
2018-03-27T08:26:21.230Z,52.20
2018-03-27T08:28:48.700Z,48.60
2018-03-27T08:31:16.148Z,52.60
2018-03-27T08:33:43.601Z,45.38
2018-03-27T08:36:11.090Z,50.53
2018-03-27T08:38:38.557Z,56.50
2018-03-27T08:41:06.804Z,53.93
2018-03-27T08:43:34.265Z,54.20
2018-03-27T08:46:01.744Z,50.47
2018-03-27T08:48:29.952Z,59.27
2018-03-27T08:50:57.436Z,50.47
2018-03-27T08:53:24.881Z,54.73
2018-03-27T08:55:52.356Z,48.10
2018-03-27T08:58:19.812Z,60.07
2018-03-27T09:00:47.274Z,43.73
2018-03-27T09:03:14.732Z,51.57
2018-03-27T09:05:42.193Z,42.95
2018-03-27T09:08:09.650Z,44.00
2018-03-27T09:10:37.110Z,46.30
2018-03-27T09:13:04.673Z,41.33
2018-03-27T09:15:32.135Z,47.03
2018-03-27T09:17:59.594Z,47.47
2018-03-27T09:20:27.047Z,40.53
2018-03-27T09:22:54.518Z,43.90
2018-03-27T09:25:21.985Z,45.63
2018-03-27T09:27:50.200Z,44.80
2018-03-27T09:30:17.690Z,44.13
2018-03-27T09:32:45.162Z,48.25
2018-03-27T09:35:12.636Z,49.07
2018-03-27T09:37:40.866Z,44.00
2018-03-27T09:40:08.331Z,50.40
2018-03-27T09:42:35.844Z,45.03
2018-03-27T09:45:03.317Z,50.67
2018-03-27T09:47:30.785Z,41.00
2018-03-27T09:49:58.251Z,44.70
2018-03-27T09:52:25.701Z,25.80
2018-03-27T09:54:53.165Z,22.57
2018-03-27T09:57:20.627Z,20.47
2018-03-27T09:59:48.084Z,24.40
2018-03-27T10:02:15.542Z,23.80
2018-03-27T10:04:43.022Z,27.25
2018-03-27T10:07:10.503Z,22.90
2018-03-27T10:09:38.752Z,24.27
2018-03-27T10:12:06.231Z,30.35
2018-03-27T10:14:34.439Z,25.48
2018-03-27T10:17:01.939Z,27.00
2018-03-27T10:19:29.372Z,32.87
2018-03-27T10:21:58.516Z,24.53
2018-03-27T10:24:26.747Z,24.77
2018-03-27T10:26:54.220Z,26.93
2018-03-27T10:29:21.661Z,24.60
2018-03-27T10:31:49.127Z,31.40
2018-03-27T10:34:16.578Z,24.27
2018-03-27T10:36:44.048Z,27.80
2018-03-27T10:39:11.503Z,28.33
2018-03-27T10:41:38.962Z,27.80
2018-03-27T10:44:06.881Z,26.60
2018-03-27T10:46:35.096Z,29.40
2018-03-27T10:49:02.553Z,30.50
2018-03-27T10:51:30.042Z,31.50
2018-03-27T10:53:57.503Z,36.83
2018-03-27T10:56:25.736Z,37.50
2018-03-27T10:58:53.203Z,24.93
2018-03-27T11:01:20.661Z,28.13
2018-03-27T11:03:48.144Z,29.40
2018-03-27T11:06:16.498Z,24.17
2018-03-27T11:08:44.405Z,29.23
2018-03-27T11:11:12.646Z,38.73
2018-03-27T11:13:40.091Z,29.00
2018-03-27T11:16:07.548Z,29.97
2018-03-27T11:18:35.039Z,22.25
2018-03-27T11:21:02.493Z,21.43
2018-03-27T11:23:31.468Z,19.67
2018-03-27T11:25:58.916Z,20.00
2018-03-27T11:28:26.382Z,18.60
2018-03-27T11:30:53.848Z,17.20
2018-03-27T11:33:21.317Z,19.70
2018-03-27T11:35:48.782Z,19.73
2018-03-27T11:38:16.327Z,19.62
2018-03-27T11:40:44.557Z,111.85
2018-03-27T11:43:12.031Z,14.50
2018-03-27T11:45:39.500Z,13.17
2018-03-27T11:48:06.977Z,15.13
2018-03-27T11:50:35.417Z,16.70
2018-03-27T11:53:03.654Z,16.97
2018-03-27T11:55:31.866Z,14.70
2018-03-27T11:57:59.339Z,16.93
2018-03-27T12:00:26.793Z,13.40
2018-03-27T12:02:54.261Z,18.37
2018-03-27T12:05:21.739Z,12.97
2018-03-27T12:07:49.184Z,14.93
2018-03-27T12:10:16.638Z,15.37
2018-03-27T12:12:44.099Z,16.13
2018-03-27T12:15:11.587Z,18.20
2018-03-27T12:17:39.802Z,15.67
2018-03-27T12:20:07.272Z,13.37
2018-03-27T12:22:34.748Z,15.60
2018-03-27T12:25:02.214Z,13.97
2018-03-27T12:27:29.708Z,12.57
2018-03-27T12:29:57.221Z,17.00
2018-03-27T12:32:24.621Z,13.40
2018-03-27T12:34:52.107Z,25.37
2018-03-27T12:37:26.205Z,13.57
2018-03-27T12:39:53.663Z,13.27
2018-03-27T12:42:21.136Z,13.50
2018-03-27T12:44:48.614Z,18.73
2018-03-27T12:47:16.080Z,19.40
2018-03-27T12:49:43.540Z,14.63
2018-03-27T12:52:11.026Z,14.73
2018-03-27T12:54:39.264Z,18.50
2018-03-27T12:57:06.724Z,16.40
2018-03-27T12:59:34.191Z,12.70
2018-03-27T13:02:01.657Z,15.93
2018-03-27T13:04:29.257Z,14.37
2018-03-27T13:06:57.685Z,13.63
2018-03-27T13:09:25.200Z,14.70
2018-03-27T13:11:52.703Z,13.33
2018-03-27T13:14:20.137Z,14.30
2018-03-27T13:16:47.600Z,14.30
2018-03-27T13:19:15.500Z,15.50
2018-03-27T13:21:43.733Z,16.10
2018-03-27T13:24:11.200Z,15.90
2018-03-27T13:26:38.653Z,16.20
2018-03-27T13:29:07.564Z,13.43
2018-03-27T13:31:35.035Z,15.30
2018-03-27T13:34:02.509Z,18.43
2018-03-27T13:36:30.733Z,15.50
2018-03-27T13:38:58.218Z,13.40
2018-03-27T13:41:25.670Z,14.07
2018-03-27T13:43:53.145Z,12.73
2018-03-27T13:46:21.385Z,13.07
2018-03-27T13:48:48.837Z,15.77
2018-03-27T13:51:16.306Z,12.37
2018-03-27T13:53:43.781Z,12.60
2018-03-27T13:56:11.237Z,13.03
2018-03-27T13:58:38.707Z,15.73
2018-03-27T14:01:06.932Z,17.20
2018-03-27T14:03:34.401Z,17.92
2018-03-27T14:06:01.877Z,13.57
2018-03-27T14:08:29.349Z,20.43
2018-03-27T14:10:57.598Z,13.50
2018-03-27T14:13:25.061Z,13.40
2018-03-27T14:15:52.552Z,14.10
2018-03-27T14:18:20.777Z,14.57
2018-03-27T14:20:48.249Z,15.77
2018-03-27T14:23:15.730Z,12.93
2018-03-27T14:25:43.198Z,12.10
2018-03-27T14:28:11.434Z,13.80
2018-03-27T14:30:38.986Z,18.23
2018-03-27T14:33:06.379Z,17.50
2018-03-27T14:35:34.616Z,15.23
2018-03-27T14:38:02.077Z,16.87
2018-03-27T14:40:29.545Z,12.93
2018-03-27T14:42:57.028Z,14.67
2018-03-27T14:45:24.496Z,19.80
2018-03-27T14:47:52.734Z,17.10
2018-03-27T14:50:20.205Z,21.17
2018-03-27T14:52:47.664Z,32.60
2018-03-27T14:55:15.125Z,22.27
2018-03-27T14:57:42.596Z,17.67
2018-03-27T15:00:10.835Z,21.93
2018-03-27T15:02:38.288Z,16.37
2018-03-27T15:05:05.768Z,18.20
2018-03-27T15:07:33.240Z,18.97
2018-03-27T15:10:00.713Z,17.80
2018-03-27T15:12:28.942Z,15.33
2018-03-27T15:14:56.413Z,16.37
2018-03-27T15:17:23.905Z,24.87
2018-03-27T15:19:52.129Z,18.07
2018-03-27T15:22:19.593Z,16.00
2018-03-27T15:24:47.061Z,18.10
2018-03-27T15:27:14.522Z,14.40
2018-03-27T15:29:41.973Z,18.17
2018-03-27T15:32:09.437Z,17.70
2018-03-27T15:34:37.661Z,17.13
2018-03-27T15:37:05.125Z,17.42
2018-03-27T15:39:32.627Z,32.37
2018-03-27T15:42:00.058Z,19.08
2018-03-27T15:44:27.522Z,17.10
2018-03-27T15:46:54.988Z,21.07
2018-03-27T15:49:22.445Z,18.40
2018-03-27T15:51:49.910Z,19.70
2018-03-27T15:54:17.375Z,19.20
2018-03-27T15:56:50.777Z,19.93
2018-03-27T15:59:19.005Z,22.30
2018-03-27T16:01:46.498Z,16.53
2018-03-27T16:04:14.726Z,22.43
2018-03-27T16:06:42.182Z,19.87
2018-03-27T16:09:09.655Z,22.93
2018-03-27T16:11:37.117Z,21.23
2018-03-27T16:14:05.601Z,16.60
2018-03-27T16:16:33.068Z,19.53
2018-03-27T16:19:00.526Z,14.10
2018-03-27T16:21:28.010Z,19.30
2018-03-27T16:23:56.243Z,18.40
2018-03-27T16:26:23.738Z,19.90
2018-03-27T16:28:51.201Z,19.57
2018-03-27T16:31:18.668Z,19.37
2018-03-27T16:33:46.899Z,19.70
2018-03-27T16:36:14.353Z,25.13
2018-03-27T16:38:41.823Z,19.40
2018-03-27T16:41:09.288Z,15.57
2018-03-27T16:43:36.773Z,16.50
2018-03-27T16:46:04.310Z,21.37
2018-03-27T16:48:32.545Z,17.10
2018-03-27T16:51:00.031Z,15.30
2018-03-27T16:53:27.481Z,16.90
2018-03-27T16:55:54.948Z,14.60
2018-03-27T16:58:23.614Z,16.37
2018-03-27T17:00:51.070Z,14.83
2018-03-27T17:03:18.545Z,14.63
2018-03-27T17:05:46.004Z,18.93
2018-03-27T17:08:13.476Z,16.30
2018-03-27T17:10:40.921Z,15.87
2018-03-27T17:13:08.393Z,16.10
2018-03-27T17:15:35.853Z,15.40
2018-03-27T17:18:03.345Z,16.73
2018-03-27T17:20:31.769Z,18.45
2018-03-27T17:22:59.230Z,20.67
2018-03-27T17:25:26.695Z,21.17
2018-03-27T17:27:54.152Z,18.83
2018-03-27T17:30:22.391Z,17.00
2018-03-27T17:32:49.850Z,17.55
2018-03-27T17:35:18.310Z,20.60
2018-03-27T17:37:45.772Z,16.30
2018-03-27T17:40:13.259Z,19.40
2018-03-27T17:42:41.634Z,20.10
2018-03-27T17:45:09.100Z,20.60
2018-03-27T17:47:37.364Z,20.30
2018-03-27T17:50:04.829Z,18.27
2018-03-27T17:52:32.280Z,25.00
2018-03-27T17:54:59.806Z,22.45
2018-03-27T17:57:27.224Z,18.93
2018-03-27T17:59:54.677Z,20.13
2018-03-27T18:02:22.131Z,22.07
2018-03-27T18:04:51.630Z,22.03
2018-03-27T18:07:19.086Z,20.40
2018-03-27T18:09:46.584Z,21.57
2018-03-27T18:12:14.800Z,24.30
2018-03-27T18:14:42.266Z,25.87
2018-03-27T18:17:09.718Z,23.48
2018-03-27T18:19:37.191Z,24.85
2018-03-27T18:22:04.671Z,23.80
2018-03-27T18:24:32.146Z,25.83
2018-03-27T18:27:00.396Z,25.60
2018-03-27T18:29:27.897Z,24.63
2018-03-27T18:31:55.393Z,27.30
2018-03-27T18:34:22.856Z,24.40
2018-03-27T18:36:50.333Z,26.30
2018-03-27T18:39:19.312Z,23.90
2018-03-27T18:41:46.773Z,37.00
2018-03-27T18:44:14.236Z,37.43
2018-03-27T18:46:41.712Z,46.83
2018-03-27T18:49:09.928Z,39.60
2018-03-27T18:51:37.405Z,30.33
2018-03-27T18:54:04.933Z,29.43
2018-03-27T18:56:32.409Z,28.10
2018-03-27T18:58:59.864Z,27.33
2018-03-27T19:01:27.340Z,27.50
2018-03-27T19:03:54.813Z,26.57
2018-03-27T19:06:22.304Z,24.00
2018-03-27T19:08:50.554Z,27.40
2018-03-27T19:11:18.021Z,25.87
2018-03-27T19:13:46.268Z,24.10
2018-03-27T19:16:13.744Z,23.43
2018-03-27T19:18:41.186Z,23.03
2018-03-27T19:21:08.761Z,22.17
2018-03-27T19:23:36.213Z,24.83
2018-03-27T19:26:05.201Z,19.47
2018-03-27T19:28:32.657Z,21.10
2018-03-27T19:31:00.129Z,21.13
2018-03-27T19:33:27.581Z,22.62
2018-03-27T19:35:55.049Z,26.60
2018-03-27T19:38:28.965Z,25.37
2018-03-27T19:40:57.200Z,24.20
2018-03-27T19:43:24.920Z,27.85
2018-03-27T19:45:53.138Z,21.70
2018-03-27T19:48:20.664Z,23.67
2018-03-27T19:50:48.061Z,23.63
2018-03-27T19:53:15.525Z,24.20
2018-03-27T19:55:42.994Z,28.08
2018-03-27T19:58:10.457Z,27.00
2018-03-27T20:00:37.913Z,27.20
2018-03-27T20:03:05.377Z,30.13
2018-03-27T20:05:33.765Z,30.17
2018-03-27T20:08:01.993Z,27.90
2018-03-27T20:10:29.455Z,25.90
2018-03-27T20:12:56.940Z,29.57
2018-03-27T20:15:24.430Z,27.90
2018-03-27T20:17:51.904Z,26.85
2018-03-27T20:20:19.381Z,25.87
2018-03-27T20:22:46.830Z,23.63
2018-03-27T20:25:14.306Z,28.63
2018-03-27T20:27:42.795Z,26.20
2018-03-27T20:30:10.254Z,25.90
2018-03-27T20:32:37.708Z,35.40
2018-03-27T20:35:05.161Z,30.40
2018-03-27T20:37:32.647Z,26.60
2018-03-27T20:40:00.865Z,28.35
2018-03-27T20:42:28.344Z,28.97
2018-03-27T20:44:55.808Z,32.30
2018-03-27T20:47:23.289Z,33.33
2018-03-27T20:49:50.761Z,27.03
2018-03-27T20:52:18.998Z,31.60
2018-03-27T20:54:46.541Z,27.33
2018-03-27T20:57:14.721Z,30.13
2018-03-27T20:59:42.184Z,31.10
2018-03-27T21:02:09.647Z,30.43
2018-03-27T21:04:37.100Z,27.90
2018-03-27T21:07:04.561Z,30.87
2018-03-27T21:09:32.013Z,31.40
2018-03-27T21:11:59.490Z,32.50
2018-03-27T21:14:28.470Z,26.73
2018-03-27T21:16:55.950Z,30.77
2018-03-27T21:19:23.409Z,28.63
2018-03-27T21:21:50.874Z,25.53
2018-03-27T21:24:19.103Z,27.27
2018-03-27T21:26:46.564Z,26.33
2018-03-27T21:29:14.035Z,27.10
2018-03-27T21:31:41.514Z,26.80
2018-03-27T21:34:09.734Z,25.88
2018-03-27T21:36:37.206Z,27.73
2018-03-27T21:39:05.461Z,24.53
2018-03-27T21:41:32.921Z,25.27
2018-03-27T21:44:00.381Z,25.90
2018-03-27T21:46:27.889Z,24.15
2018-03-27T21:48:55.345Z,27.10
2018-03-27T21:51:22.811Z,22.30
2018-03-27T21:53:50.274Z,29.67
2018-03-27T21:56:18.517Z,24.63
2018-03-27T21:58:45.992Z,28.83
2018-03-27T22:01:13.468Z,28.57
2018-03-27T22:03:41.693Z,24.10
2018-03-27T22:06:09.169Z,25.00
2018-03-27T22:08:36.643Z,28.57
2018-03-27T22:11:04.104Z,23.07
2018-03-27T22:13:31.585Z,24.77
2018-03-27T22:15:59.839Z,23.53
2018-03-27T22:18:27.309Z,20.80
2018-03-27T22:20:55.556Z,22.60
2018-03-27T22:23:22.994Z,23.87
2018-03-27T22:25:50.462Z,27.53
2018-03-27T22:28:17.925Z,24.77
2018-03-27T22:30:45.375Z,23.83
2018-03-27T22:33:12.861Z,24.70
2018-03-27T22:35:40.316Z,24.13
2018-03-27T22:38:08.557Z,24.43
2018-03-27T22:40:36.022Z,23.87
2018-03-27T22:43:03.485Z,23.10
2018-03-27T22:45:30.941Z,22.30
2018-03-27T22:47:58.418Z,22.63
2018-03-27T22:50:25.877Z,25.73
2018-03-27T22:52:53.338Z,23.35
2018-03-27T22:55:20.802Z,21.17
2018-03-27T22:57:49.033Z,22.80
2018-03-27T23:00:17.440Z,24.17
2018-03-27T23:02:44.900Z,27.00
2018-03-27T23:05:12.405Z,23.47
2018-03-27T23:07:39.880Z,23.48
2018-03-27T23:10:07.347Z,21.67
2018-03-27T23:12:34.815Z,22.07
2018-03-27T23:15:02.282Z,21.10
2018-03-27T23:17:29.764Z,20.60
2018-03-27T23:19:57.984Z,17.97
2018-03-27T23:22:31.117Z,19.60
2018-03-27T23:24:58.578Z,24.47
2018-03-27T23:27:26.805Z,17.70
2018-03-27T23:29:54.273Z,24.53
2018-03-27T23:32:21.736Z,21.70
2018-03-27T23:34:49.189Z,19.10
2018-03-27T23:37:16.646Z,19.70
2018-03-27T23:39:44.120Z,19.70
2018-03-27T23:42:11.580Z,15.90
2018-03-27T23:44:39.049Z,20.70
2018-03-27T23:47:06.505Z,20.33
2018-03-27T23:49:33.986Z,17.83
2018-03-27T23:52:02.203Z,18.87
2018-03-27T23:54:29.675Z,15.80
2018-03-27T23:56:57.145Z,20.33
2018-03-27T23:59:24.666Z,19.13
